Time;durP1;ratioP1;P1;durP2;ratioP2;P2;SDS_P1;SDS_P2;PMS_P1;PMS_P2;Temp;Humidity;BMP_temperature;BMP_pressure;BME280_temperature;BME280_humidity;BME280_pressure;Samples;Min_cycle;Max_cycle;Signal;HPM_P1;HPM_P2
2022/06/09 00:01:08;;;;;;;;;;;;;;;22.99;45.78;100735.28;2108759;28;783;-47
2022/06/09 00:02:08;;;;;;;;;;;;;;;22.97;45.43;100739.88;2108682;28;850;-48
2022/06/09 00:03:12;;;;;;;;;;;;;;;22.96;45.50;100736.31;2108660;28;1028;-48
2022/06/09 00:04:14;;;;;;;;;;;;;;;22.94;45.87;100731.00;2108743;28;749;-48
2022/06/09 00:05:15;;;;;;;;;;;;;;;22.95;46.11;100723.75;2108626;28;766;-48
2022/06/09 00:06:15;;;;;;;;;;;;;;;22.94;45.77;100728.28;2108621;28;928;-47
2022/06/09 00:07:17;;;;;;;;;;;;;;;22.94;45.39;100730.09;2108293;28;965;-48
2022/06/09 00:08:18;;;;;;;;;;;;;;;22.92;45.48;100735.56;2107808;28;1969;-48
2022/06/09 00:09:20;;;;;;;;;;;;;;;22.93;46.07;100731.03;2108572;28;827;-49
2022/06/09 00:10:23;;;;;;;;;;;;;;;22.92;45.80;100727.47;2108530;28;929;-48
2022/06/09 00:11:24;;;;;;;;;;;;;;;22.91;45.52;100738.34;2108536;28;912;-47
2022/06/09 00:12:25;;;;;;;;;;;;;;;22.92;46.44;100737.38;2113348;28;2443;-48
2022/06/09 00:13:25;;;;;;;;;;;;;;;22.91;45.53;100739.22;2116981;28;1039;-49
2022/06/09 00:14:26;;;;;;;;;;;;;;;22.90;46.35;100740.16;2116970;28;980;-48
2022/06/09 00:15:27;;;;;;;;;;;;;;;22.90;45.54;100740.16;2116994;28;794;-49
2022/06/09 00:16:28;;;;;;;;;;;;;;;22.89;45.97;100740.22;2116967;28;1027;-48
2022/06/09 00:17:28;;;;;;;;;;;;;;;22.89;46.07;100740.22;2117043;28;775;-47
2022/06/09 00:18:28;;;;;;;;;;;;;;;22.88;46.23;100741.16;2116955;28;854;-48
2022/06/09 00:19:28;;;;;;;;;;;;;;;22.87;46.26;100740.31;2116970;28;838;-48
2022/06/09 00:20:28;;;;;;;;;;;;;;;22.88;46.04;100743.88;2116929;28;766;-48
2022/06/09 00:21:28;;;;;;;;;;;;;;;22.87;46.30;100742.13;2116945;28;924;-48
2022/06/09 00:22:29;;;;;;;;;;;;;;;22.85;46.45;100744.91;2116896;28;1036;-48
2022/06/09 00:23:29;;;;;;;;;;;;;;;22.86;46.30;100740.34;2116898;28;924;-48
2022/06/09 00:24:29;;;;;;;;;;;;;;;22.84;46.01;100748.53;2116879;28;1055;-48
2022/06/09 00:25:29;;;;;;;;;;;;;;;22.86;45.85;100748.47;2117042;28;786;-48
2022/06/09 00:26:30;;;;;;;;;;;;;;;22.84;46.21;100742.25;2116840;28;862;-47
2022/06/09 00:27:30;;;;;;;;;;;;;;;22.83;46.55;100746.78;2115768;28;2900;-48
2022/06/09 00:28:31;;;;;;;;;;;;;;;22.84;46.66;100753.06;2116847;28;1913;-48
2022/06/09 00:29:31;;;;;;;;;;;;;;;22.82;46.54;100745.03;2116880;28;877;-48
2022/06/09 00:30:31;;;;;;;;;;;;;;;22.80;46.68;100750.50;2116843;28;1007;-48
2022/06/09 00:31:32;;;;;;;;;;;;;;;22.83;46.51;100748.59;2116825;28;929;-48
2022/06/09 00:32:32;;;;;;;;;;;;;;;22.82;45.83;100753.13;2116835;28;811;-48
2022/06/09 00:33:32;;;;;;;;;;;;;;;22.81;46.09;100751.38;2116822;28;893;-48
2022/06/09 00:34:32;;;;;;;;;;;;;;;22.82;46.60;100754.94;2116819;28;976;-48
2022/06/09 00:35:32;;;;;;;;;;;;;;;22.80;46.70;100744.22;2116804;28;960;-48
2022/06/09 00:36:33;;;;;;;;;;;;;;;22.80;46.40;100747.78;2116795;28;861;-49
2022/06/09 00:37:33;;;;;;;;;;;;;;;22.80;46.04;100741.53;2116731;28;1191;-48
2022/06/09 00:38:33;;;;;;;;;;;;;;;22.79;46.62;100745.16;2116769;28;972;-49
2022/06/09 00:39:33;;;;;;;;;;;;;;;22.79;46.40;100751.44;2116809;28;834;-49
2022/06/09 00:40:34;;;;;;;;;;;;;;;22.78;46.25;100743.41;2116719;28;873;-48
2022/06/09 00:41:37;;;;;;;;;;;;;;;22.78;46.85;100746.97;2116765;28;1008;-48
2022/06/09 00:42:38;;;;;;;;;;;;;;;22.77;46.98;100747.06;2116739;28;862;-48
2022/06/09 00:43:40;;;;;;;;;;;;;;;22.76;46.16;100745.31;2110395;28;2330;-48
2022/06/09 00:44:41;;;;;;;;;;;;;;;22.75;46.95;100746.25;2108313;28;985;-47
2022/06/09 00:45:45;;;;;;;;;;;;;;;22.74;46.12;100745.34;2108270;28;817;-48
2022/06/09 00:46:48;;;;;;;;;;;;;;;22.75;46.74;100743.53;2108569;28;762;-48
2022/06/09 00:47:49;;;;;;;;;;;;;;;22.74;46.62;100745.34;2108305;28;826;-48
2022/06/09 00:48:53;;;;;;;;;;;;;;;22.73;46.75;100740.91;2108194;28;1983;-48
2022/06/09 00:50:04;;;;;;;;;;;;;;;22.74;46.07;100742.66;2108308;28;1055;-48
2022/06/09 00:51:23;;;;;;;;;;;;;;;22.73;46.86;100742.72;2108343;28;846;-47
2022/06/09 00:52:24;;;;;;;;;;;;;;;22.74;46.99;100737.25;2108264;28;965;-48
2022/06/09 00:53:28;;;;;;;;;;;;;;;22.74;46.22;100741.78;2108243;28;1000;-47
2022/06/09 00:54:31;;;;;;;;;;;;;;;22.74;46.81;100744.50;2108281;28;1000;-48
2022/06/09 00:55:33;;;;;;;;;;;;;;;22.73;46.46;100740.03;2108259;28;1012;-48
2022/06/09 00:56:35;;;;;;;;;;;;;;;22.74;46.92;100747.19;2108176;28;1008;-48
2022/06/09 00:57:41;;;;;;;;;;;;;;;22.73;46.64;100746.28;2108173;28;992;-48
2022/06/09 00:58:43;;;;;;;;;;;;;;;22.73;47.06;100742.72;2108160;28;1007;-48
2022/06/09 00:59:46;;;;;;;;;;;;;;;22.73;46.39;100748.13;2110602;28;2667;-47
2022/06/09 01:00:49;;;;;;;;;;;;;;;22.72;46.93;100749.94;2116629;28;811;-48
2022/06/09 01:01:49;;;;;;;;;;;;;;;22.72;46.71;100749.94;2116711;28;1008;-48
2022/06/09 01:02:52;;;;;;;;;;;;;;;22.72;47.07;100752.66;2116656;28;779;-47
2022/06/09 01:03:56;;;;;;;;;;;;;;;22.71;46.94;100745.50;2116590;28;1056;-48
2022/06/09 01:04:56;;;;;;;;;;;;;;;22.71;46.31;100740.09;2116620;28;992;-47
2022/06/09 01:06:02;;;;;;;;;;;;;;;22.71;46.47;100744.63;2116577;28;969;-48
2022/06/09 01:07:12;;;;;;;;;;;;;;;22.71;46.50;100745.50;2116640;28;967;-48
2022/06/09 01:27:58;;;;;;;;;;;;;;;22.67;46.40;100743.00;2098622;28;1337;-49
2022/06/09 01:29:18;;;;;;;;;;;;;;;22.68;46.39;100747.47;2098641;28;833;-49
2022/06/09 01:30:20;;;;;;;;;;;;;;;22.67;46.99;100748.41;2098618;28;842;-50
2022/06/09 01:31:20;;;;;;;;;;;;;;;22.66;46.76;100742.13;2092982;28;2886;-50
2022/06/09 01:32:29;;;;;;;;;;;;;;;22.67;47.37;100743.88;2090325;28;918;-50
2022/06/09 01:33:33;;;;;;;;;;;;;;;22.64;46.52;100747.59;2090302;28;921;-50
2022/06/09 01:34:43;;;;;;;;;;;;;;;22.65;46.78;100743.94;2090276;28;858;-50
2022/06/09 01:35:47;;;;;;;;;;;;;;;22.67;46.94;100748.41;2090394;28;842;-50
2022/06/09 01:37:06;;;;;;;;;;;;;;;22.67;47.30;100745.69;2089927;28;902;-50
2022/06/09 01:38:06;;;;;;;;;;;;;;;22.67;46.54;100751.97;2090295;28;877;-51
2022/06/09 01:39:07;;;;;;;;;;;;;;;22.67;46.64;100746.56;2090296;28;910;-50
2022/06/09 01:40:08;;;;;;;;;;;;;;;22.67;46.49;100746.56;2090251;28;969;-50
2022/06/09 01:41:08;;;;;;;;;;;;;;;22.65;46.55;100749.34;2090293;28;779;-50
2022/06/09 01:42:19;;;;;;;;;;;;;;;22.65;47.23;100749.34;2090274;28;752;-50
2022/06/09 01:43:19;;;;;;;;;;;;;;;22.66;47.20;100742.13;2090240;28;852;-50
2022/06/09 01:44:20;;;;;;;;;;;;;;;22.65;47.42;100749.34;2090254;28;811;-50
2022/06/09 01:45:22;;;;;;;;;;;;;;;22.64;47.31;100747.59;2090192;28;894;-50
2022/06/09 01:46:26;;;;;;;;;;;;;;;22.65;47.21;100722.34;2090183;28;961;-50
2022/06/09 01:47:30;;;;;;;;;;;;;;;22.66;46.79;100739.44;2090121;28;2247;-50
2022/06/09 01:48:32;;;;;;;;;;;;;;;22.65;46.77;100738.53;2100966;28;2607;-50
2022/06/09 01:49:32;;;;;;;;;;;;;;;22.66;47.13;100744.84;2106192;28;1051;-50
2022/06/09 01:50:45;;;;;;;;;;;;;;;22.65;47.43;100735.84;2098476;28;870;-50
2022/06/09 01:51:46;;;;;;;;;;;;;;;22.64;46.67;100746.72;2098464;28;1031;-50
2022/06/09 01:52:46;;;;;;;;;;;;;;;22.65;47.45;100734.97;2098430;28;854;-50
2022/06/09 01:54:13;;;;;;;;;;;;;;;22.67;46.83;100745.69;2098411;28;810;-50
2022/06/09 01:55:16;;;;;;;;;;;;;;;22.66;47.27;100742.13;2098144;28;1101;-50
2022/06/09 01:56:20;;;;;;;;;;;;;;;22.67;46.90;100740.31;2098346;28;1036;-50
2022/06/09 01:57:24;;;;;;;;;;;;;;;22.67;47.10;100743.00;2098413;28;1086;-50
2022/06/09 01:58:26;;;;;;;;;;;;;;;22.67;46.48;100740.31;2098356;28;790;-50
2022/06/09 01:59:29;;;;;;;;;;;;;;;22.65;46.96;100741.25;2098340;28;861;-50
2022/06/09 02:00:30;;;;;;;;;;;;;;;22.66;46.56;100744.84;2098339;28;791;-50
2022/06/09 02:01:33;;;;;;;;;;;;;;;22.65;47.37;100749.34;2098347;28;1296;-50
2022/06/09 02:02:36;;;;;;;;;;;;;;;22.65;47.29;100743.94;2098322;28;882;-50
2022/06/09 02:03:39;;;;;;;;;;;;;;;22.64;46.85;100746.72;2098308;28;1130;-50
2022/06/09 02:04:43;;;;;;;;;;;;;;;22.65;46.97;100748.47;2098326;28;977;-50
2022/06/09 02:05:45;;;;;;;;;;;;;;;22.62;47.61;100740.50;2091543;28;2591;-50
2022/06/09 02:06:47;;;;;;;;;;;;;;;22.59;47.02;100743.34;2089916;28;2057;-50
2022/06/09 02:07:48;;;;;;;;;;;;;;;22.56;47.54;100748.88;2090051;28;898;-50
2022/06/09 02:08:49;;;;;;;;;;;;;;;22.54;47.13;100751.63;2090056;28;1052;-50
2022/06/09 02:09:49;;;;;;;;;;;;;;;22.52;47.23;100747.25;2090001;28;795;-50
2022/06/09 02:10:54;;;;;;;;;;;;;;;22.52;47.72;100755.34;2090035;28;958;-50
2022/06/09 02:11:55;;;;;;;;;;;;;;;22.52;47.34;100750.81;2090003;28;862;-50
2022/06/09 02:12:59;;;;;;;;;;;;;;;22.53;46.86;100746.31;2090026;28;779;-50
2022/06/09 02:14:00;;;;;;;;;;;;;;;22.54;47.73;100750.75;2089989;28;806;-50
2022/06/09 02:15:00;;;;;;;;;;;;;;;22.56;46.78;100757.84;2090011;28;1184;-50
2022/06/09 02:16:03;;;;;;;;;;;;;;;22.55;47.56;100756.09;2089978;28;705;-50
2022/06/09 02:17:05;;;;;;;;;;;;;;;22.56;46.90;100757.84;2089933;28;1001;-50
2022/06/09 02:18:24;;;;;;;;;;;;;;;22.57;47.47;100750.63;2089970;28;843;-50
2022/06/09 02:19:24;;;;;;;;;;;;;;;22.57;46.89;100748.78;2089959;28;993;-50
2022/06/09 02:20:24;;;;;;;;;;;;;;;22.57;46.89;100754.19;2089938;28;965;-50
2022/06/09 02:21:30;;;;;;;;;;;;;;;22.58;47.17;100755.09;2089962;28;764;-50
2022/06/09 02:22:30;;;;;;;;;;;;;;;22.57;47.77;100756.91;2089922;28;765;-50
2022/06/09 02:23:31;;;;;;;;;;;;;;;22.56;47.33;100756.97;2089347;28;2695;-50
2022/06/09 02:24:32;;;;;;;;;;;;;;;22.56;47.07;100756.97;2089894;28;846;-50
2022/06/09 02:25:32;;;;;;;;;;;;;;;22.56;46.82;100755.13;2089941;28;819;-50
2022/06/09 02:26:32;;;;;;;;;;;;;;;22.55;46.82;100761.47;2089879;28;965;-50
2022/06/09 02:27:33;;;;;;;;;;;;;;;22.56;47.70;100762.38;2096278;28;1949;-50
2022/06/09 02:28:33;;;;;;;;;;;;;;;22.55;46.92;100764.19;2098077;28;811;-50
2022/06/09 02:29:34;;;;;;;;;;;;;;;22.55;47.01;100771.41;2098097;28;933;-50
2022/06/09 02:30:35;;;;;;;;;;;;;;;22.55;47.21;100774.97;2098091;28;1097;-50
2022/06/09 02:31:35;;;;;;;;;;;;;;;22.56;47.34;100767.78;2098063;28;921;-50
2022/06/09 02:32:35;;;;;;;;;;;;;;;22.55;47.19;100769.59;2098062;28;1052;-50
2022/06/09 02:33:36;;;;;;;;;;;;;;;22.55;47.28;100769.59;2098011;28;751;-50
2022/06/09 02:34:36;;;;;;;;;;;;;;;22.55;47.09;100774.13;2098134;28;1052;-50
2022/06/09 02:35:37;;;;;;;;;;;;;;;22.53;47.01;100765.22;2098184;28;762;-50
2022/06/09 02:36:37;;;;;;;;;;;;;;;22.54;47.80;100773.22;2098034;28;866;-50
2022/06/09 02:37:37;;;;;;;;;;;;;;;22.55;47.31;100768.72;2097961;28;1271;-50
2022/06/09 02:38:37;;;;;;;;;;;;;;;22.54;47.49;100769.66;2094623;28;2623;-50
2022/06/09 02:39:37;;;;;;;;;;;;;;;22.54;47.73;100773.22;2092553;28;783;-50
2022/06/09 02:40:38;;;;;;;;;;;;;;;22.54;47.79;100770.53;2092530;28;882;-50
2022/06/09 02:41:38;;;;;;;;;;;;;;;22.54;46.98;100775.91;2092539;28;957;-50
2022/06/09 02:42:38;;;;;;;;;;;;;;;22.55;47.43;100777.69;2092539;28;906;-50
2022/06/09 02:43:40;;;;;;;;;;;;;;;22.54;46.98;100773.22;2092510;28;973;-50
2022/06/09 02:44:40;;;;;;;;;;;;;;;22.55;47.00;100783.06;2092539;28;795;-50
2022/06/09 02:45:40;;;;;;;;;;;;;;;22.54;47.86;100781.31;2092515;28;842;-50
2022/06/09 02:46:40;;;;;;;;;;;;;;;22.54;47.30;100778.63;2092453;28;926;-50
2022/06/09 02:47:41;;;;;;;;;;;;;;;22.55;47.09;100780.38;2092395;28;1968;-51
2022/06/09 02:48:41;;;;;;;;;;;;;;;22.54;47.44;100784.03;2092502;28;784;-50
2022/06/09 02:49:41;;;;;;;;;;;;;;;22.55;47.73;100780.38;2092446;28;1020;-50
2022/06/09 02:50:42;;;;;;;;;;;;;;;22.55;47.33;100790.31;2092414;28;858;-50
2022/06/09 02:51:42;;;;;;;;;;;;;;;22.55;47.75;100787.63;2092436;28;906;-50
2022/06/09 02:52:42;;;;;;;;;;;;;;;22.55;47.33;100787.63;2092462;28;969;-50
2022/06/09 02:53:42;;;;;;;;;;;;;;;22.55;47.01;100785.78;2092446;28;691;-50
2022/06/09 02:54:42;;;;;;;;;;;;;;;22.55;47.55;100782.22;2097854;28;2530;-50
2022/06/09 02:55:43;;;;;;;;;;;;;;;22.55;46.99;100785.78;2100718;28;1032;-50
2022/06/09 02:56:43;;;;;;;;;;;;;;;22.54;47.42;100780.47;2100730;28;803;-50
2022/06/09 02:57:44;;;;;;;;;;;;;;;22.55;47.14;100779.53;2100703;28;968;-50
2022/06/09 02:58:44;;;;;;;;;;;;;;;22.53;47.36;100776.88;2100645;28;806;-50
2022/06/09 02:59:44;;;;;;;;;;;;;;;22.55;47.85;100783.06;2100779;28;892;-50
2022/06/09 03:00:44;;;;;;;;;;;;;;;22.56;47.37;100789.38;2100666;28;832;-51
2022/06/09 03:01:44;;;;;;;;;;;;;;;22.55;47.77;100791.19;2100700;28;855;-50
2022/06/09 03:02:52;;;;;;;;;;;;;;;22.54;47.08;100789.41;2100641;28;980;-50
2022/06/09 03:03:53;;;;;;;;;;;;;;;22.54;47.93;100785.84;2100651;28;1052;-51
2022/06/09 03:04:53;;;;;;;;;;;;;;;22.54;47.37;100789.41;2100661;28;798;-50
2022/06/09 03:05:53;;;;;;;;;;;;;;;22.54;47.38;100789.41;2100626;28;865;-50
2022/06/09 03:06:53;;;;;;;;;;;;;;;22.53;47.01;100792.19;2100547;28;1894;-50
2022/06/09 03:07:54;;;;;;;;;;;;;;;22.53;47.94;100784.09;2100763;28;604;-50
2022/06/09 03:08:54;;;;;;;;;;;;;;;22.53;47.95;100786.81;2100600;28;822;-50
2022/06/09 03:09:54;;;;;;;;;;;;;;;22.53;47.45;100784.09;2100570;28;965;-50
2022/06/09 03:10:54;;;;;;;;;;;;;;;22.51;47.43;100776.06;2100613;28;735;-50
2022/06/09 03:11:54;;;;;;;;;;;;;;;22.50;47.97;100775.19;2099557;28;2581;-50
2022/06/09 03:12:55;;;;;;;;;;;;;;;22.50;47.63;100777.00;2100567;28;850;-50
2022/06/09 03:13:55;;;;;;;;;;;;;;;22.50;47.94;100774.28;2100497;28;1609;-50
2022/06/09 03:14:56;;;;;;;;;;;;;;;22.49;47.30;100783.34;2100547;28;1039;-51
2022/06/09 03:15:56;;;;;;;;;;;;;;;22.49;47.84;100778.84;2100538;28;822;-50
2022/06/09 03:16:56;;;;;;;;;;;;;;;22.49;47.97;100780.63;2100578;28;988;-51
2022/06/09 03:17:57;;;;;;;;;;;;;;;22.48;48.00;100785.19;2100537;28;1155;-50
2022/06/09 03:18:57;;;;;;;;;;;;;;;22.48;47.75;100784.28;2100569;28;822;-50
2022/06/09 03:19:57;;;;;;;;;;;;;;;22.48;47.48;100787.88;2100539;28;838;-50
2022/06/09 03:20:57;;;;;;;;;;;;;;;22.49;47.66;100791.44;2100521;28;751;-50
2022/06/09 03:21:57;;;;;;;;;;;;;;;22.49;47.19;100788.72;2100507;28;885;-50
2022/06/09 03:22:57;;;;;;;;;;;;;;;22.48;47.91;100789.69;2100521;28;850;-50
2022/06/09 03:23:58;;;;;;;;;;;;;;;22.49;47.94;100794.13;2100523;28;976;-50
2022/06/09 03:24:58;;;;;;;;;;;;;;;22.49;47.76;100788.72;2100512;28;870;-50
2022/06/09 03:25:59;;;;;;;;;;;;;;;22.49;47.23;100795.03;2100516;28;1032;-50
2022/06/09 03:26:59;;;;;;;;;;;;;;;22.49;47.22;100795.03;2100210;28;1961;-50
2022/06/09 03:28:00;;;;;;;;;;;;;;;22.48;48.02;100787.88;2100489;28;787;-50
2022/06/09 03:29:00;;;;;;;;;;;;;;;22.47;48.11;100791.50;2096096;28;2322;-50
2022/06/09 03:30:01;;;;;;;;;;;;;;;22.47;47.25;100796.91;2092135;28;658;-50
2022/06/09 03:31:01;;;;;;;;;;;;;;;22.47;47.42;100798.72;2092145;28;877;-50
2022/06/09 03:32:01;;;;;;;;;;;;;;;22.46;47.39;100789.75;2092124;28;985;-51
2022/06/09 03:33:02;;;;;;;;;;;;;;;22.47;47.27;100798.72;2092118;28;866;-50
2022/06/09 03:34:02;;;;;;;;;;;;;;;22.46;48.09;100800.56;2092139;28;957;-50
2022/06/09 03:35:02;;;;;;;;;;;;;;;22.46;47.51;100797.84;2092136;28;850;-50
2022/06/09 03:36:03;;;;;;;;;;;;;;;22.46;47.90;100799.66;2092071;28;965;-50
2022/06/09 03:37:04;;;;;;;;;;;;;;;22.47;48.08;100798.72;2092155;28;858;-50
2022/06/09 03:38:04;;;;;;;;;;;;;;;22.46;48.03;100802.34;2092157;28;669;-50
2022/06/09 03:39:04;;;;;;;;;;;;;;;22.45;47.93;100806.91;2092075;28;961;-50
2022/06/09 03:40:05;;;;;;;;;;;;;;;22.45;47.75;100806.91;2092089;28;1012;-50
2022/06/09 03:41:05;;;;;;;;;;;;;;;22.45;47.73;100804.19;2092076;28;787;-51
2022/06/09 03:42:05;;;;;;;;;;;;;;;22.46;47.97;100799.66;2092041;28;819;-50
2022/06/09 03:43:06;;;;;;;;;;;;;;;22.47;47.64;100804.13;2092108;28;925;-50
2022/06/09 03:44:06;;;;;;;;;;;;;;;22.46;47.45;100802.34;2092030;28;855;-50
2022/06/09 03:45:07;;;;;;;;;;;;;;;22.45;47.93;100803.31;2092023;28;851;-50
2022/06/09 03:46:08;;;;;;;;;;;;;;;22.46;48.07;100805.06;2084608;28;2468;-50
2022/06/09 03:47:10;;;;;;;;;;;;;;;22.46;47.64;100805.06;2091385;28;1901;-50
2022/06/09 03:48:10;;;;;;;;;;;;;;;22.45;48.00;100798.78;2100302;28;908;-50
2022/06/09 03:49:11;;;;;;;;;;;;;;;22.46;47.24;100805.06;2100299;28;885;-50
2022/06/09 03:50:14;;;;;;;;;;;;;;;22.45;47.29;100801.50;2099837;28;779;-50
2022/06/09 03:51:14;;;;;;;;;;;;;;;22.46;47.41;100802.34;2099769;28;807;-50
2022/06/09 03:52:15;;;;;;;;;;;;;;;22.46;47.89;100803.25;2100354;28;766;-50
2022/06/09 03:53:15;;;;;;;;;;;;;;;22.46;47.36;100807.75;2100233;28;854;-50
2022/06/09 03:54:15;;;;;;;;;;;;;;;22.46;47.96;100807.75;2100231;28;847;-51
2022/06/09 03:55:15;;;;;;;;;;;;;;;22.46;47.10;100807.75;2100204;28;842;-50
2022/06/09 03:56:19;;;;;;;;;;;;;;;22.47;46.95;100809.50;2100240;28;913;-50
2022/06/09 03:57:19;;;;;;;;;;;;;;;22.45;47.79;100809.59;2100309;28;831;-50
2022/06/09 03:58:19;;;;;;;;;;;;;;;22.45;46.98;100809.59;2100209;28;811;-50
2022/06/09 03:59:19;;;;;;;;;;;;;;;22.44;46.92;100807.84;2100192;28;847;-50
2022/06/09 04:00:24;;;;;;;;;;;;;;;22.45;46.67;100801.50;2100201;28;1028;-51
2022/06/09 04:01:24;;;;;;;;;;;;;;;22.45;47.00;100809.59;2099224;28;2371;-50
2022/06/09 04:02:24;;;;;;;;;;;;;;;23.16;45.17;100813.75;2100167;28;1047;-50
2022/06/09 04:03:24;;;;;;;;;;;;;;;24.11;42.46;100802.19;2100147;28;847;-52
2022/06/09 04:04:25;;;;;;;;;;;;;;;24.81;40.55;100801.44;2100179;28;830;-50
2022/06/09 04:05:26;;;;;;;;;;;;;;;25.33;39.50;100806.84;2100176;28;827;-50
2022/06/09 04:06:27;;;;;;;;;;;;;;;25.75;38.24;100802.78;2100155;28;723;-49
2022/06/09 04:07:27;;;;;;;;;;;;;;;26.00;37.17;100804.09;2100063;28;1947;-49
2022/06/09 04:08:27;;;;;;;;;;;;;;;26.25;36.92;100794.56;2100114;28;783;-49
2022/06/09 04:09:27;;;;;;;;;;;;;;;26.47;35.97;100805.94;2100085;28;1052;-49
2022/06/09 04:10:30;;;;;;;;;;;;;;;26.79;35.37;100797.69;2100113;28;841;-49
2022/06/09 04:11:30;;;;;;;;;;;;;;;27.06;34.68;100793.41;2100126;28;832;-49
2022/06/09 04:12:30;;;;;;;;;;;;;;;27.27;34.08;100801.19;2100113;28;891;-49
2022/06/09 04:13:30;;;;;;;;;;;;;;;27.49;33.91;100803.47;2100081;28;759;-50
2022/06/09 04:14:31;;;;;;;;;;;;;;;27.77;33.81;100797.13;2100060;28;838;-50
2022/06/09 04:15:31;;;;;;;;;;;;;;;28.07;32.63;100784.31;2100069;28;839;-50
2022/06/09 04:16:33;;;;;;;;;;;;;;;28.29;32.66;100786.50;2100080;28;763;-50
2022/06/09 04:17:33;;;;;;;;;;;;;;;28.40;31.75;100791.22;2100078;28;941;-50
2022/06/09 04:18:33;;;;;;;;;;;;;;;28.58;31.27;100786.34;2098927;28;2435;-50
2022/06/09 04:19:33;;;;;;;;;;;;;;;28.81;31.33;100793.00;2100047;28;830;-50
2022/06/09 04:20:33;;;;;;;;;;;;;;;29.12;30.73;100800.88;2100018;28;921;-50
2022/06/09 04:21:34;;;;;;;;;;;;;;;29.27;30.66;100798.91;2100000;28;1112;-50
2022/06/09 04:22:34;;;;;;;;;;;;;;;29.39;30.15;100795.34;2099806;28;1365;-50
2022/06/09 04:23:34;;;;;;;;;;;;;;;29.56;30.05;100794.09;2099976;28;870;-50
2022/06/09 04:24:34;;;;;;;;;;;;;;;29.68;29.60;100796.94;2099960;28;771;-51
2022/06/09 04:25:35;;;;;;;;;;;;;;;29.83;29.80;100794.91;2099958;28;1012;-50
2022/06/09 04:26:36;;;;;;;;;;;;;;;29.97;29.09;100800.22;2099995;28;973;-50
2022/06/09 04:27:36;;;;;;;;;;;;;;;30.16;29.16;100798.88;2099742;28;1910;-50
2022/06/09 04:28:36;;;;;;;;;;;;;;;30.11;28.58;100803.81;2099958;28;1032;-50
2022/06/09 04:29:36;;;;;;;;;;;;;;;30.23;28.77;100796.56;2099975;28;763;-50
2022/06/09 04:30:36;;;;;;;;;;;;;;;30.25;28.72;100800.06;2099941;28;870;-50
2022/06/09 04:31:36;;;;;;;;;;;;;;;30.20;28.91;100802.25;2099945;28;1009;-51
2022/06/09 04:32:37;;;;;;;;;;;;;;;30.49;28.70;100797.31;2099975;28;764;-50
2022/06/09 04:33:37;;;;;;;;;;;;;;;30.56;28.26;100797.69;2096874;28;2447;-50
2022/06/09 04:34:37;;;;;;;;;;;;;;;30.65;28.61;100798.88;2091629;28;1032;-50
2022/06/09 04:35:37;;;;;;;;;;;;;;;30.39;28.71;100796.25;2091626;28;727;-50
2022/06/09 04:36:38;;;;;;;;;;;;;;;30.52;28.95;100797.06;2091695;28;823;-49
2022/06/09 04:38:57;;;;;;;;;;;;;;;30.99;28.24;100796.25;2091691;28;614;-50
2022/06/09 04:39:58;;;;;;;;;;;;;;;30.88;28.34;100795.22;2091640;28;791;-51
2022/06/09 04:40:58;;;;;;;;;;;;;;;31.18;27.93;100798.41;2091588;28;835;-50
2022/06/09 04:41:58;;;;;;;;;;;;;;;31.26;27.64;100797.78;2091617;28;1017;-50
2022/06/09 04:42:58;;;;;;;;;;;;;;;31.19;27.82;100808.38;2091578;28;779;-50
2022/06/09 04:43:58;;;;;;;;;;;;;;;31.08;28.28;100798.25;2091603;28;902;-50
2022/06/09 04:44:58;;;;;;;;;;;;;;;31.14;27.83;100800.50;2091586;28;1029;-50
2022/06/09 04:45:58;;;;;;;;;;;;;;;31.17;27.72;100794.81;2091579;28;969;-50
2022/06/09 04:46:59;;;;;;;;;;;;;;;31.39;27.68;100800.44;2091506;28;1905;-50
2022/06/09 04:47:59;;;;;;;;;;;;;;;31.52;27.53;100803.88;2091540;28;853;-50
2022/06/09 04:48:59;;;;;;;;;;;;;;;31.31;27.60;100801.91;2091566;28;958;-51
2022/06/09 04:49:59;;;;;;;;;;;;;;;31.40;27.65;100802.16;2097276;28;2361;-50
2022/06/09 04:50:59;;;;;;;;;;;;;;;31.50;27.71;100800.44;2099816;28;977;-51
2022/06/09 04:51:59;;;;;;;;;;;;;;;31.56;27.51;100801.78;2099818;28;859;-50
2022/06/09 04:53:00;;;;;;;;;;;;;;;31.82;27.05;100801.53;2099804;28;949;-50
2022/06/09 04:54:00;;;;;;;;;;;;;;;31.68;27.20;100808.13;2099837;28;873;-51
2022/06/09 04:55:00;;;;;;;;;;;;;;;31.70;27.03;100803.41;2099811;28;1012;-50
2022/06/09 04:56:00;;;;;;;;;;;;;;;31.86;26.67;100806.66;2099762;28;819;-50
2022/06/09 04:57:00;;;;;;;;;;;;;;;31.91;26.60;100803.53;2099763;28;818;-50
2022/06/09 04:58:01;;;;;;;;;;;;;;;31.93;26.83;100807.00;2099730;28;847;-50
2022/06/09 04:59:01;;;;;;;;;;;;;;;31.95;26.39;100805.00;2099750;28;826;-51
2022/06/09 05:00:01;;;;;;;;;;;;;;;31.99;25.96;100806.50;2099770;28;1021;-50
2022/06/09 05:01:01;;;;;;;;;;;;;;;32.14;25.84;100812.56;2099757;28;775;-50
2022/06/09 05:02:01;;;;;;;;;;;;;;;31.94;26.07;100814.22;2099541;28;885;-50
2022/06/09 05:03:02;;;;;;;;;;;;;;;32.11;26.10;100812.81;2099708;28;1033;-52
2022/06/09 05:04:02;;;;;;;;;;;;;;;32.04;25.92;100812.47;2099741;28;866;-51
2022/06/09 05:05:03;;;;;;;;;;;;;;;32.10;25.80;100822.03;2099743;28;846;-51
2022/06/09 05:06:03;;;;;;;;;;;;;;;32.28;25.53;100819.63;2092357;28;2423;-50
2022/06/09 05:07:03;;;;;;;;;;;;;;;32.24;25.76;100824.47;2091405;28;1959;-50
2022/06/09 05:08:03;;;;;;;;;;;;;;;32.20;25.69;100822.16;2091435;28;901;-50
2022/06/09 05:09:03;;;;;;;;;;;;;;;32.27;25.53;100820.63;2091399;28;731;-50
2022/06/09 05:10:04;;;;;;;;;;;;;;;32.27;25.47;100812.41;2091391;28;980;-50
2022/06/09 05:11:04;;;;;;;;;;;;;;;32.25;25.35;100819.88;2091411;28;1044;-50
2022/06/09 05:12:04;;;;;;;;;;;;;;;32.24;25.24;100815.41;2090782;28;870;-50
2022/06/09 05:13:06;;;;;;;;;;;;;;;32.34;25.40;100815.53;2090832;28;853;-50
2022/06/09 05:14:06;;;;;;;;;;;;;;;31.97;25.68;100821.31;2091422;28;815;-52
2022/06/09 05:15:06;;;;;;;;;;;;;;;32.26;25.53;100818.00;2091369;28;977;-51
2022/06/09 05:16:08;;;;;;;;;;;;;;;32.36;25.41;100819.91;2091440;28;763;-50
2022/06/09 05:17:08;;;;;;;;;;;;;;;32.32;25.48;100818.41;2091368;28;826;-50
2022/06/09 05:18:11;;;;;;;;;;;;;;;32.26;25.42;100818.88;2091432;28;771;-50
2022/06/09 05:19:11;;;;;;;;;;;;;;;32.37;25.29;100823.50;2091411;28;811;-51
2022/06/09 05:20:15;;;;;;;;;;;;;;;32.40;25.18;100816.88;2091388;28;1025;-50
2022/06/09 05:21:15;;;;;;;;;;;;;;;32.29;25.48;100821.41;2091356;28;1004;-50
2022/06/09 05:22:15;;;;;;;;;;;;;;;32.44;25.32;100829.31;2091329;28;874;-50
2022/06/09 05:23:18;;;;;;;;;;;;;;;32.57;24.91;100830.00;2090906;28;2682;-48
2022/06/09 05:24:18;;;;;;;;;;;;;;;32.46;25.35;100827.31;2091413;28;883;-47
2022/06/09 05:25:18;;;;;;;;;;;;;;;32.37;25.09;100828.97;2091374;28;989;-47
2022/06/09 05:26:21;;;;;;;;;;;;;;;32.38;25.52;100826.09;2091360;28;977;-47
2022/06/09 05:27:21;;;;;;;;;;;;;;;32.52;24.97;100826.78;2091255;28;1965;-48
2022/06/09 05:28:22;;;;;;;;;;;;;;;32.46;25.16;100830.06;2091267;28;894;-48
2022/06/09 05:29:22;;;;;;;;;;;;;;;32.54;24.92;100830.28;2091354;28;1044;-48
2022/06/09 05:30:23;;;;;;;;;;;;;;;32.63;24.66;100834.97;2091322;28;1016;-48
2022/06/09 05:31:24;;;;;;;;;;;;;;;32.58;25.08;100837.22;2091339;28;787;-48
2022/06/09 05:32:24;;;;;;;;;;;;;;;32.44;25.42;100832.03;2091333;28;810;-47
2022/06/09 05:33:24;;;;;;;;;;;;;;;32.51;25.15;100833.28;2091314;28;846;-47
2022/06/09 05:34:24;;;;;;;;;;;;;;;32.55;25.21;100840.25;2091283;28;851;-47
2022/06/09 05:35:25;;;;;;;;;;;;;;;32.20;25.65;100833.09;2091319;28;1024;-48
2022/06/09 05:36:25;;;;;;;;;;;;;;;32.16;25.59;100835.22;2091327;28;784;-47
2022/06/09 05:37:25;;;;;;;;;;;;;;;32.15;26.02;100840.84;2091339;28;992;-48
2022/06/09 05:45:02;;;;;;;;;;;;;;;32.48;26.27;100844.50;2094875;28;1443;-48
2022/06/09 05:46:03;;;;;;;;;;;;;;;32.41;26.44;100848.75;2090548;28;1587;-47
2022/06/09 05:47:03;;;;;;;;;;;;;;;32.45;26.55;100844.75;2091768;28;1954;-47
2022/06/09 05:48:04;;;;;;;;;;;;;;;32.46;26.58;100849.22;2094027;28;1520;-48
2022/06/09 05:49:04;;;;;;;;;;;;;;;32.70;26.47;100846.28;2094821;28;1683;-48
2022/06/09 05:50:05;;;;;;;;;;;;;;;32.20;27.07;100852.28;2088463;28;1498;-48